createdAt,value
2022-10-17T00:00:55.841Z,102728.88
2022-10-17T00:03:57.869Z,102724.56
2022-10-17T00:07:00.570Z,102722.13
2022-10-17T00:10:03.332Z,102693.69
2022-10-17T00:13:06.477Z,102701.38
2022-10-17T00:16:09.162Z,102724.38
2022-10-17T00:19:11.329Z,102709.41
2022-10-17T00:22:14.111Z,102710.28
2022-10-17T00:25:16.519Z,102720.81
2022-10-17T00:28:18.750Z,102737.38
2022-10-17T00:31:23.419Z,102730.75
2022-10-17T00:34:26.194Z,102727.81
2022-10-17T00:37:28.517Z,102710.66
2022-10-17T00:40:30.627Z,102742.97
2022-10-17T00:43:51.197Z,102747.13
2022-10-17T00:47:02.591Z,102728.25
2022-10-17T00:50:07.072Z,102715.16
2022-10-17T00:53:09.713Z,102694.41
2022-10-17T00:56:15.802Z,102694.25
2022-10-17T00:59:22.086Z,102720.88
2022-10-17T01:02:24.295Z,102706.69
2022-10-17T01:05:27.449Z,102688.56
2022-10-17T01:08:30.654Z,102720.06
2022-10-17T01:11:40.782Z,102720.19
2022-10-17T01:15:02.379Z,102743.97
2022-10-17T01:18:13.125Z,102728.41
2022-10-17T01:21:48.361Z,102739.66
2022-10-17T01:25:01.929Z,102739.03
2022-10-17T01:32:30.792Z,102734.31
2022-10-17T01:35:38.370Z,102741.22
2022-10-17T01:38:49.065Z,102729.44
2022-10-17T01:42:19.458Z,102732.00
2022-10-17T01:45:25.798Z,102723.09
2022-10-17T01:48:36.319Z,102723.91
2022-10-17T01:51:43.540Z,102723.34
2022-10-17T01:54:51.322Z,102713.34
2022-10-17T01:57:58.039Z,102731.22
2022-10-17T02:01:07.015Z,102716.09
2022-10-17T02:04:11.466Z,102736.69
2022-10-17T02:07:13.960Z,102740.84
2022-10-17T02:10:26.157Z,102741.78
2022-10-17T02:13:42.556Z,102734.22
2022-10-17T02:17:00.301Z,102755.25
2022-10-17T02:20:11.536Z,102766.97
2022-10-17T02:23:30.643Z,102747.84
2022-10-17T02:26:48.507Z,102754.63
2022-10-17T02:30:01.244Z,102748.53
2022-10-17T02:33:06.801Z,102742.00
2022-10-17T02:36:17.979Z,102759.28
2022-10-17T02:39:25.385Z,102762.28
2022-10-17T02:42:30.330Z,102772.09
2022-10-17T02:45:36.587Z,102763.69
2022-10-17T02:48:48.571Z,102760.91
2022-10-17T02:52:04.256Z,102777.22
2022-10-17T02:55:18.093Z,102761.13
2022-10-17T02:58:28.365Z,102750.59
2022-10-17T03:01:31.315Z,102779.50
2022-10-17T03:04:34.272Z,102777.75
2022-10-17T03:07:39.438Z,102782.56
2022-10-17T03:10:42.791Z,102770.88
2022-10-17T03:13:47.608Z,102782.25
2022-10-17T03:16:51.315Z,102755.19
2022-10-17T03:19:54.640Z,102770.75
2022-10-17T03:22:56.782Z,102785.81
2022-10-17T03:25:58.875Z,102772.38
2022-10-17T03:29:02.121Z,102786.63
2022-10-17T03:32:05.479Z,102788.63
2022-10-17T03:35:14.090Z,102785.25
2022-10-17T03:38:19.331Z,102800.13
2022-10-17T03:41:21.669Z,102813.44
2022-10-17T03:44:24.029Z,102774.56
2022-10-17T03:47:26.214Z,102810.38
2022-10-17T03:50:28.531Z,102817.03
2022-10-17T03:53:32.606Z,102820.19
2022-10-17T03:56:34.720Z,102796.81
2022-10-17T03:59:43.483Z,102800.53
2022-10-17T04:02:50.209Z,102817.09
2022-10-17T04:05:57.770Z,102799.16
2022-10-17T04:09:00.146Z,102792.06
2022-10-17T04:12:24.849Z,102815.03
2022-10-17T04:15:27.364Z,102793.25
2022-10-17T04:18:29.913Z,102799.59
2022-10-17T04:21:32.219Z,102779.44
2022-10-17T04:24:39.920Z,102794.13
2022-10-17T04:27:49.525Z,102785.25
2022-10-17T04:31:11.798Z,102794.72
2022-10-17T04:34:34.552Z,102782.38
2022-10-17T04:37:36.616Z,102799.09
2022-10-17T04:40:45.070Z,102780.41
2022-10-17T04:43:51.019Z,102807.56
2022-10-17T04:46:56.039Z,102798.16
2022-10-17T04:49:59.173Z,102789.59
2022-10-17T04:53:01.936Z,102795.03
2022-10-17T04:56:12.776Z,102823.72
2022-10-17T04:59:15.210Z,102809.41
2022-10-17T05:02:19.380Z,102820.56
2022-10-17T05:05:22.302Z,102825.25
2022-10-17T05:08:29.896Z,102836.00
2022-10-17T05:11:32.656Z,102855.78
2022-10-17T05:14:34.745Z,102853.91
2022-10-17T05:17:37.017Z,102848.72
2022-10-17T05:20:39.248Z,102854.09
2022-10-17T05:23:42.075Z,102859.22
2022-10-17T05:26:44.160Z,102853.53
2022-10-17T05:29:47.510Z,102864.47
2022-10-17T05:33:01.286Z,102870.00
2022-10-17T05:36:03.728Z,102857.63
2022-10-17T05:39:06.258Z,102866.47
2022-10-17T05:42:09.857Z,102863.16
2022-10-17T05:45:12.006Z,102862.31
2022-10-17T05:48:14.423Z,102858.09
2022-10-17T05:51:16.593Z,102861.63
2022-10-17T05:54:18.953Z,102875.97
2022-10-17T05:57:21.111Z,102868.50
2022-10-17T06:00:23.387Z,102881.75
2022-10-17T06:03:32.682Z,102886.91
2022-10-17T06:06:40.363Z,102894.00
2022-10-17T06:09:43.012Z,102893.38
2022-10-17T06:12:46.286Z,102888.28
2022-10-17T06:15:49.589Z,102868.94
2022-10-17T06:18:51.773Z,102887.06
2022-10-17T06:21:54.702Z,102870.13
2022-10-17T06:24:58.503Z,102892.34
2022-10-17T06:28:01.167Z,102867.38
2022-10-17T06:31:11.661Z,102883.94
2022-10-17T06:34:13.785Z,102884.06
2022-10-17T06:37:16.418Z,102887.31
2022-10-17T06:40:21.181Z,102882.88
2022-10-17T06:43:27.866Z,102873.19
2022-10-17T06:46:53.021Z,102888.94
2022-10-17T06:49:56.530Z,102892.47
2022-10-17T06:53:18.727Z,102880.00
2022-10-17T06:56:52.861Z,102902.97
2022-10-17T07:00:21.394Z,102902.19
2022-10-17T07:03:27.073Z,102888.44
2022-10-17T07:06:29.353Z,102910.94
2022-10-17T07:09:35.874Z,102909.72
2022-10-17T07:12:37.936Z,102902.34
2022-10-17T07:15:40.102Z,102912.59
2022-10-17T07:18:43.016Z,102908.16
2022-10-17T07:21:45.222Z,102915.84
2022-10-17T07:27:56.070Z,102924.56
2022-10-17T07:31:07.127Z,102909.97
2022-10-17T07:34:09.279Z,102922.84
2022-10-17T07:37:12.047Z,102917.53
2022-10-17T07:40:17.539Z,102930.69
2022-10-17T07:43:19.754Z,102909.16
2022-10-17T07:46:22.354Z,102915.31
2022-10-17T07:49:25.142Z,102920.00
2022-10-17T07:52:28.134Z,102903.53
2022-10-17T07:55:31.259Z,102909.97
2022-10-17T07:58:33.505Z,102922.50
2022-10-17T08:01:35.687Z,102915.22
2022-10-17T08:04:37.892Z,102913.53
2022-10-17T08:07:41.481Z,102915.50
2022-10-17T08:10:43.892Z,102909.53
2022-10-17T08:13:46.010Z,102902.81
2022-10-17T08:16:48.079Z,102904.53
2022-10-17T08:19:50.165Z,102907.09
2022-10-17T08:22:53.700Z,102913.97
2022-10-17T08:25:59.966Z,102874.66
2022-10-17T08:29:02.133Z,102884.81
2022-10-17T08:32:07.649Z,102916.81
2022-10-17T08:35:11.717Z,102916.56
2022-10-17T08:38:14.654Z,102892.69
2022-10-17T08:41:47.628Z,102914.00
2022-10-17T08:45:15.919Z,102913.31
2022-10-17T08:48:23.971Z,102912.47
2022-10-17T08:51:32.644Z,102913.50
2022-10-17T08:54:42.213Z,102909.91
2022-10-17T08:57:44.718Z,102906.84
2022-10-17T09:01:13.271Z,102908.88
2022-10-17T09:04:44.536Z,102923.09
2022-10-17T09:08:20.296Z,102915.94
2022-10-17T09:11:45.474Z,102916.81
2022-10-17T09:14:59.091Z,102915.66
2022-10-17T09:18:13.452Z,102904.25
2022-10-17T09:21:30.564Z,102899.50
2022-10-17T09:24:42.483Z,102915.38
2022-10-17T09:27:51.997Z,102911.06
2022-10-17T09:31:13.278Z,102902.22
2022-10-17T09:34:16.545Z,102884.31
2022-10-17T09:37:19.929Z,102905.25
2022-10-17T09:40:27.035Z,102901.09
2022-10-17T09:43:30.443Z,102893.25
2022-10-17T09:46:41.897Z,102890.72
2022-10-17T09:49:47.084Z,102891.41
2022-10-17T09:52:51.019Z,102877.13
2022-10-17T09:56:03.193Z,102894.69
2022-10-17T09:59:05.303Z,102880.25
2022-10-17T10:02:13.262Z,102895.00
2022-10-17T10:05:30.176Z,102886.00
2022-10-17T10:08:38.031Z,102885.31
2022-10-17T10:11:52.476Z,102888.16
2022-10-17T10:14:55.547Z,102869.16
2022-10-17T10:17:57.769Z,102869.41
2022-10-17T10:21:10.487Z,102847.16
2022-10-17T10:24:15.268Z,102824.28
2022-10-17T10:27:18.867Z,102854.66
2022-10-17T10:30:25.920Z,102846.66
2022-10-17T10:33:30.717Z,102852.75
2022-10-17T10:36:46.379Z,102856.59
2022-10-17T10:39:54.806Z,102854.59
2022-10-17T10:43:04.878Z,102831.75
2022-10-17T10:46:37.008Z,102834.72
2022-10-17T10:49:39.775Z,102833.69
2022-10-17T10:53:02.728Z,102807.44
2022-10-17T10:56:13.623Z,102829.66
2022-10-17T10:59:42.868Z,102840.28
2022-10-17T11:03:12.719Z,102816.03
2022-10-17T11:06:25.262Z,102816.75
2022-10-17T11:13:29.234Z,102833.69
2022-10-17T11:17:00.001Z,102832.84
2022-10-17T11:20:30.502Z,102830.03
2022-10-17T11:23:56.525Z,102820.06
2022-10-17T11:27:05.129Z,102816.50
2022-10-17T11:30:12.110Z,102840.66
2022-10-17T11:33:26.831Z,102825.22
2022-10-17T11:36:32.992Z,102834.22
2022-10-17T11:39:42.378Z,102832.91
2022-10-17T11:43:15.742Z,102834.03
2022-10-17T11:46:24.998Z,102798.25
2022-10-17T11:49:51.561Z,102826.88
2022-10-17T11:52:59.250Z,102825.84
2022-10-17T11:56:02.952Z,102824.28
2022-10-17T11:59:41.990Z,102816.13
2022-10-17T12:02:52.170Z,102813.41
2022-10-17T12:06:18.233Z,102826.88
2022-10-17T12:09:42.606Z,102816.84
2022-10-17T12:12:44.744Z,102804.88
2022-10-17T12:15:51.338Z,102806.75
2022-10-17T12:19:03.046Z,102806.16
2022-10-17T12:22:28.864Z,102811.41
2022-10-17T12:25:34.723Z,102801.56
2022-10-17T12:28:48.175Z,102791.00
2022-10-17T12:31:50.878Z,102783.88
2022-10-17T12:34:55.654Z,102794.25
2022-10-17T12:38:01.917Z,102794.94
2022-10-17T12:41:05.216Z,102789.13
2022-10-17T12:44:14.969Z,102801.94
2022-10-17T12:47:38.326Z,102795.84
2022-10-17T12:51:30.720Z,102791.25
2022-10-17T12:54:24.483Z,102791.38
2022-10-17T12:57:48.482Z,102794.94
2022-10-17T13:04:22.155Z,102779.66
2022-10-17T13:07:26.377Z,102772.22
2022-10-17T13:10:31.729Z,102770.84
2022-10-17T13:13:39.338Z,102762.44
2022-10-17T13:16:52.205Z,102777.66
2022-10-17T13:19:55.455Z,102774.41
2022-10-17T13:22:58.650Z,102764.84
2022-10-17T13:26:15.874Z,102785.09
2022-10-17T13:29:46.522Z,102772.38
2022-10-17T13:32:52.167Z,102767.56
2022-10-17T13:36:00.508Z,102767.56
2022-10-17T13:39:12.526Z,102782.25
2022-10-17T13:42:30.366Z,102772.53
2022-10-17T13:45:37.101Z,102773.00
2022-10-17T13:48:39.594Z,102765.84
2022-10-17T13:51:48.217Z,102781.69
2022-10-17T13:54:51.697Z,102783.22
2022-10-17T13:57:58.368Z,102777.25
2022-10-17T14:01:01.171Z,102756.59
2022-10-17T14:04:19.496Z,102782.00
2022-10-17T14:07:46.132Z,102767.59
2022-10-17T14:10:49.352Z,102768.47
2022-10-17T14:13:59.110Z,102761.06
2022-10-17T14:17:01.415Z,102758.50
2022-10-17T14:23:38.467Z,102770.06
2022-10-17T14:26:55.789Z,102776.66
2022-10-17T14:30:04.220Z,102766.09
2022-10-17T14:33:11.163Z,102768.78
2022-10-17T14:36:14.557Z,102754.53
2022-10-17T14:39:23.502Z,102775.41
2022-10-17T14:42:26.268Z,102766.16
2022-10-17T14:45:38.826Z,102771.13
2022-10-17T14:48:43.296Z,102773.28
2022-10-17T14:52:16.789Z,102776.00
2022-10-17T14:55:25.606Z,102778.97
2022-10-17T14:58:33.615Z,102776.41
2022-10-17T15:01:36.132Z,102763.88
2022-10-17T15:04:42.328Z,102757.44
2022-10-17T15:07:46.962Z,102729.41
2022-10-17T15:10:52.082Z,102765.78
2022-10-17T15:13:54.675Z,102770.75
2022-10-17T15:16:56.861Z,102748.75
2022-10-17T15:19:59.295Z,102750.97
2022-10-17T15:23:02.407Z,102773.94
2022-10-17T15:26:16.172Z,102779.31
2022-10-17T15:29:18.766Z,102769.59
2022-10-17T15:32:21.152Z,102788.53
2022-10-17T15:35:26.542Z,102783.69
2022-10-17T15:38:29.397Z,102777.06
2022-10-17T15:41:32.816Z,102785.53
2022-10-17T15:44:36.963Z,102797.25
2022-10-17T15:47:39.312Z,102795.25
2022-10-17T15:50:42.154Z,102793.41
2022-10-17T15:53:45.798Z,102813.53
2022-10-17T15:57:34.144Z,102821.44
2022-10-17T16:00:38.583Z,102818.75
2022-10-17T16:03:40.662Z,102813.91
2022-10-17T16:06:43.309Z,102834.09
2022-10-17T16:09:46.274Z,102835.38
2022-10-17T16:12:51.411Z,102826.38
2022-10-17T16:15:54.028Z,102833.69
2022-10-17T16:18:57.724Z,102836.38
2022-10-17T16:22:04.331Z,102828.41
2022-10-17T16:25:19.644Z,102847.97
2022-10-17T16:28:23.081Z,102832.25
2022-10-17T16:31:29.483Z,102855.34
2022-10-17T16:34:32.954Z,102835.81
2022-10-17T16:37:38.193Z,102855.06
2022-10-17T16:40:41.453Z,102850.19
2022-10-17T16:43:45.517Z,102835.75
2022-10-17T16:46:48.485Z,102828.59
2022-10-17T16:49:51.338Z,102833.16
2022-10-17T16:52:56.248Z,102856.16
2022-10-17T16:56:10.209Z,102817.84
2022-10-17T16:59:13.004Z,102837.84
2022-10-17T17:02:24.707Z,102843.28
2022-10-17T17:05:27.816Z,102823.44
2022-10-17T17:08:31.745Z,102849.09
2022-10-17T17:11:33.835Z,102849.97
2022-10-17T17:14:36.089Z,102852.69
2022-10-17T17:17:50.313Z,102861.22
2022-10-17T17:21:00.193Z,102845.38
2022-10-17T17:24:04.564Z,102856.81
2022-10-17T17:27:08.793Z,102848.63
2022-10-17T17:30:13.935Z,102849.47
2022-10-17T17:33:17.890Z,102836.19
2022-10-17T17:36:22.557Z,102860.00
2022-10-17T17:39:24.551Z,102861.56
2022-10-17T17:42:26.874Z,102864.69
2022-10-17T17:45:29.449Z,102863.25
2022-10-17T17:48:32.736Z,102861.34
2022-10-17T17:51:34.893Z,102878.59
2022-10-17T17:54:40.072Z,102853.16
2022-10-17T17:57:45.817Z,102871.63
2022-10-17T18:00:47.938Z,102859.81
2022-10-17T18:03:52.647Z,102856.53
2022-10-17T18:07:00.815Z,102881.91
2022-10-17T18:10:04.438Z,102862.72
2022-10-17T18:13:08.024Z,102863.81
2022-10-17T18:16:17.119Z,102874.78
2022-10-17T18:19:19.417Z,102861.56
2022-10-17T18:22:25.385Z,102851.59
2022-10-17T18:25:28.523Z,102864.06
2022-10-17T18:28:30.857Z,102892.91
2022-10-17T18:31:36.181Z,102872.56
2022-10-17T18:34:38.414Z,102876.00
2022-10-17T18:37:42.776Z,102875.38
2022-10-17T18:40:47.318Z,102885.16
2022-10-17T18:43:53.525Z,102883.59
2022-10-17T18:46:59.856Z,102879.94
2022-10-17T18:50:06.706Z,102857.16
2022-10-17T18:53:09.716Z,102858.47
2022-10-17T18:56:16.455Z,102882.56
2022-10-17T18:59:19.387Z,102862.25
2022-10-17T19:02:21.503Z,102870.47
2022-10-17T19:05:24.757Z,102862.94
2022-10-17T19:08:26.832Z,102881.53
2022-10-17T19:11:31.968Z,102881.59
2022-10-17T19:14:34.297Z,102881.66
2022-10-17T19:17:38.328Z,102864.47
2022-10-17T19:20:42.966Z,102891.66
2022-10-17T19:23:52.997Z,102899.13
2022-10-17T19:26:58.748Z,102886.50
2022-10-17T19:30:01.839Z,102881.47
2022-10-17T19:33:05.773Z,102888.34
2022-10-17T19:36:11.411Z,102891.66
2022-10-17T19:39:16.442Z,102898.16
2022-10-17T19:42:19.101Z,102895.59
2022-10-17T19:45:25.577Z,102863.59
2022-10-17T19:48:31.529Z,102892.13
2022-10-17T19:51:34.281Z,102896.41
2022-10-17T19:54:36.307Z,102878.78
2022-10-17T19:57:38.543Z,102864.56
2022-10-17T20:00:47.482Z,102875.75
2022-10-17T20:03:54.749Z,102884.34
2022-10-17T20:07:00.112Z,102887.66
2022-10-17T20:10:04.705Z,102874.16
2022-10-17T20:13:08.611Z,102862.47
2022-10-17T20:16:14.028Z,102883.16
2022-10-17T20:19:16.414Z,102877.75
2022-10-17T20:22:18.808Z,102861.91
2022-10-17T20:25:22.643Z,102861.06
2022-10-17T20:28:26.888Z,102864.63
2022-10-17T20:31:29.390Z,102872.97
2022-10-17T20:34:35.705Z,102878.88
2022-10-17T20:37:42.375Z,102857.44
2022-10-17T20:40:46.314Z,102868.44
2022-10-17T20:43:51.971Z,102806.06
2022-10-17T20:47:01.697Z,102876.28
2022-10-17T20:50:07.642Z,102831.94
2022-10-17T20:56:36.576Z,102856.06
2022-10-17T20:59:38.662Z,102878.53
2022-10-17T21:02:40.956Z,102877.69
2022-10-17T21:05:43.376Z,102865.56
2022-10-17T21:08:46.697Z,102869.50
2022-10-17T21:11:51.906Z,102856.34
2022-10-17T21:14:54.684Z,102868.91
2022-10-17T21:17:56.764Z,102869.88
2022-10-17T21:21:15.130Z,102879.44
2022-10-17T21:24:19.613Z,102872.97
2022-10-17T21:27:21.664Z,102870.38
2022-10-17T21:30:24.393Z,102850.88
2022-10-17T21:33:29.417Z,102858.00
2022-10-17T21:36:32.301Z,102838.97
2022-10-17T21:39:35.839Z,102829.41
2022-10-17T21:42:39.185Z,102879.34
2022-10-17T21:45:45.553Z,102863.50
2022-10-17T21:48:49.164Z,102889.41
2022-10-17T21:51:52.623Z,102875.19
2022-10-17T21:54:55.957Z,102855.78
2022-10-17T21:57:58.162Z,102875.03
2022-10-17T22:01:09.348Z,102881.56
2022-10-17T22:04:18.436Z,102883.88
2022-10-17T22:07:20.613Z,102832.09
2022-10-17T22:10:24.171Z,102842.66
2022-10-17T22:13:26.663Z,102867.09
2022-10-17T22:16:29.215Z,102878.59
2022-10-17T22:19:32.405Z,102868.19
2022-10-17T22:22:34.464Z,102848.19
2022-10-17T22:25:40.454Z,102861.69
2022-10-17T22:28:42.537Z,102865.25
2022-10-17T22:31:44.953Z,102862.78
2022-10-17T22:34:48.341Z,102871.34
2022-10-17T22:37:52.936Z,102844.34
2022-10-17T22:40:55.301Z,102837.34
2022-10-17T22:43:57.582Z,102847.44
2022-10-17T22:46:59.709Z,102846.44
2022-10-17T22:50:01.818Z,102844.59
2022-10-17T22:53:05.206Z,102858.59
2022-10-17T22:56:16.647Z,102863.75
2022-10-17T22:59:19.324Z,102854.53
2022-10-17T23:02:24.150Z,102847.53
2022-10-17T23:05:27.390Z,102849.16
2022-10-17T23:08:29.628Z,102853.22
2022-10-17T23:11:31.870Z,102827.56
2022-10-17T23:14:37.658Z,102853.44
2022-10-17T23:17:40.864Z,102854.16
2022-10-17T23:20:43.428Z,102850.22
2022-10-17T23:23:46.916Z,102845.44
2022-10-17T23:26:49.245Z,102836.88
2022-10-17T23:29:53.535Z,102820.06
2022-10-17T23:32:56.762Z,102808.75
2022-10-17T23:36:03.523Z,102815.88
2022-10-17T23:39:07.307Z,102834.50
2022-10-17T23:42:09.501Z,102800.38
2022-10-17T23:45:12.752Z,102819.69
2022-10-17T23:48:14.908Z,102822.63
2022-10-17T23:51:17.179Z,102802.03
2022-10-17T23:54:19.623Z,102819.09
2022-10-17T23:57:21.747Z,102815.16
